Time;durP1;ratioP1;P1;durP2;ratioP2;P2;SDS_P1;SDS_P2;PMS_P1;PMS_P2;Temp;Humidity;BMP_temperature;BMP_pressure;BME280_temperature;BME280_humidity;BME280_pressure;Samples;Min_cycle;Max_cycle;Signal;HPM_P1;HPM_P2
2022/09/17 00:01:02;;;;;;;28.15;3.38;;;9.70;99.90;;;;;;4928874;28;209320;-66
2022/09/17 00:03:28;;;;;;;27.98;3.65;;;9.70;99.90;;;;;;4987698;28;20066;-66
2022/09/17 00:06:03;;;;;;;28.40;3.38;;;9.70;99.90;;;;;;4942470;28;213826;-67
2022/09/17 00:08:30;;;;;;;23.73;3.22;;;9.70;99.90;;;;;;4978836;28;20550;-65
2022/09/17 00:10:56;;;;;;;22.38;2.72;;;9.60;99.90;;;;;;4940721;28;210576;-66
2022/09/17 00:13:23;;;;;;;28.42;3.10;;;9.70;99.90;;;;;;4984871;28;20065;-66
2022/09/17 00:15:51;;;;;;;22.75;3.08;;;9.60;99.90;;;;;;4936972;28;196109;-67
2022/09/17 00:18:17;;;;;;;25.92;2.92;;;9.60;99.90;;;;;;4980431;28;20478;-67
2022/09/17 00:20:45;;;;;;;22.40;2.97;;;9.60;99.90;;;;;;4944668;28;209624;-67
2022/09/17 00:23:13;;;;;;;28.30;3.58;;;9.70;99.90;;;;;;4986707;28;20054;-67
2022/09/17 00:25:40;;;;;;;22.40;2.95;;;9.70;99.90;;;;;;4938534;28;213220;-67
2022/09/17 00:28:07;;;;;;;26.95;3.40;;;9.80;99.90;;;;;;4985915;28;20050;-66
2022/09/17 00:30:33;;;;;;;18.77;2.80;;;10.00;99.90;;;;;;4943804;28;208799;-68
2022/09/17 00:33:00;;;;;;;26.58;3.10;;;10.10;99.90;;;;;;4991713;28;20070;-68
2022/09/17 00:35:26;;;;;;;16.58;2.33;;;10.10;99.90;;;;;;4933712;28;208748;-68
2022/09/17 00:37:53;;;;;;;19.83;2.28;;;10.00;99.90;;;;;;4983740;28;20054;-68
2022/09/17 00:40:20;;;;;;;18.05;2.30;;;10.00;99.90;;;;;;4937147;28;210407;-68
2022/09/17 00:42:46;;;;;;;18.92;2.90;;;9.90;99.90;;;;;;4984894;28;20050;-67
2022/09/17 00:45:13;;;;;;;18.60;2.17;;;9.90;99.90;;;;;;4946667;28;208452;-66
2022/09/17 00:47:48;;;;;;;16.35;2.10;;;9.90;99.90;;;;;;5000316;28;20057;-67
2022/09/17 00:50:37;;;;;;;18.27;2.65;;;9.90;99.90;;;;;;4937135;28;210052;-66
2022/09/17 00:53:12;;;;;;;21.52;2.70;;;9.90;99.90;;;;;;4994763;28;20061;-67
2022/09/17 00:55:44;;;;;;;18.50;2.60;;;9.90;99.90;;;;;;4934539;28;223902;-68
2022/09/17 00:58:13;;;;;;;17.88;2.42;;;9.90;99.90;;;;;;4981808;28;20058;-68
2022/09/17 01:00:39;;;;;;;17.35;2.33;;;9.80;99.90;;;;;;4934130;28;207423;-68
2022/09/17 01:03:06;;;;;;;17.25;2.35;;;9.90;99.90;;;;;;4985458;28;20050;-68
2022/09/17 01:05:44;;;;;;;20.10;2.83;;;9.80;99.90;;;;;;4957928;28;167374;-67
2022/09/17 01:08:42;;;;;;;17.23;2.70;;;9.80;99.90;;;;;;4985231;28;20054;-68
2022/09/17 01:11:16;;;;;;;18.10;2.45;;;9.70;99.90;;;;;;4944057;28;212133;-68
2022/09/17 01:14:21;;;;;;;18.23;2.30;;;9.70;99.90;;;;;;4978539;28;20058;-67
2022/09/17 01:17:09;;;;;;;16.67;2.80;;;9.60;99.90;;;;;;4898069;28;208858;-67
2022/09/17 01:19:44;;;;;;;19.75;2.72;;;9.60;99.90;;;;;;4963593;28;20051;-68
2022/09/17 01:22:16;;;;;;;20.85;2.72;;;9.50;99.90;;;;;;4895393;28;206150;-67
2022/09/17 01:25:07;;;;;;;18.55;2.53;;;9.50;99.90;;;;;;4960671;28;20504;-67
2022/09/17 01:27:39;;;;;;;16.92;2.30;;;9.50;99.90;;;;;;4918272;28;206755;-67
2022/09/17 01:30:26;;;;;;;18.97;2.40;;;9.40;99.90;;;;;;4924316;28;212461;-67
2022/09/17 01:33:20;;;;;;;19.70;2.65;;;9.40;99.90;;;;;;4982269;28;20411;-66
2022/09/17 01:35:51;;;;;;;20.13;2.42;;;9.40;99.90;;;;;;4941240;28;208931;-67
2022/09/17 01:38:30;;;;;;;18.60;2.72;;;9.40;99.90;;;;;;4986771;28;20534;-66
2022/09/17 01:41:11;;;;;;;20.52;2.67;;;9.50;99.90;;;;;;4931503;28;211099;-67
2022/09/17 01:43:53;;;;;;;20.43;2.73;;;9.50;99.90;;;;;;4973061;28;20261;-67
2022/09/17 01:46:35;;;;;;;24.95;2.88;;;9.50;99.90;;;;;;4946889;28;217949;-65
2022/09/17 01:49:03;;;;;;;;;;;9.50;99.90;;;;;;4984473;28;20721;-67
2022/09/17 01:51:39;;;;;;;20.60;2.55;;;9.40;99.90;;;;;;4941894;28;210435;-67
2022/09/17 01:54:39;;;;;;;18.20;2.67;;;9.40;99.90;;;;;;4980912;28;20072;-66
2022/09/17 01:57:33;;;;;;;24.17;2.85;;;9.40;99.90;;;;;;4940849;28;210626;-67
2022/09/17 02:00:05;;;;;;;21.67;3.10;;;9.40;99.90;;;;;;4930518;28;210372;-67
2022/09/17 02:02:33;;;;;;;21.40;2.88;;;9.30;99.90;;;;;;4944032;28;206887;-67
2022/09/17 02:05:05;;;;;;;22.50;2.70;;;9.30;99.90;;;;;;4948345;28;201949;-67
2022/09/17 02:07:37;;;;;;;20.48;2.92;;;9.30;99.90;;;;;;4941340;28;207662;-66
2022/09/17 02:10:21;;;;;;;26.40;2.85;;;9.30;99.90;;;;;;4918149;28;207669;-67
2022/09/17 02:12:55;;;;;;;23.40;2.67;;;9.30;99.90;;;;;;4981135;28;20066;-67
2022/09/17 02:15:26;;;;;;;21.95;2.47;;;9.30;99.90;;;;;;4927361;28;207721;-65
2022/09/17 02:18:16;;;;;;;24.83;3.17;;;9.40;99.90;;;;;;4965822;28;20587;-67
2022/09/17 02:20:49;;;;;;;19.25;2.90;;;9.40;99.90;;;;;;4926124;28;226129;-67
2022/09/17 02:23:26;;;;;;;22.38;2.90;;;9.40;99.90;;;;;;4986544;28;20054;-67
2022/09/17 02:25:59;;;;;;;17.60;2.50;;;9.50;99.90;;;;;;4934108;28;210584;-65
2022/09/17 02:28:43;;;;;;;18.65;2.92;;;9.50;99.90;;;;;;4980663;28;20470;-67
2022/09/17 02:31:10;;;;;;;25.55;3.17;;;9.50;99.90;;;;;;4913485;28;206521;-67
2022/09/17 02:33:38;;;;;;;21.33;2.92;;;9.50;99.90;;;;;;4976274;28;20515;-67
2022/09/17 02:36:04;;;;;;;18.73;2.70;;;9.60;99.90;;;;;;4935664;28;209459;-69
2022/09/17 02:38:31;;;;;;;25.73;2.92;;;9.60;99.90;;;;;;4977559;28;20042;-66
2022/09/17 02:41:15;;;;;;;23.70;2.92;;;9.70;99.90;;;;;;4927995;28;209829;-68
2022/09/17 02:44:08;;;;;;;24.17;2.70;;;10.00;99.90;;;;;;4969164;28;20435;-67
2022/09/17 02:47:12;;;;;;;21.08;2.90;;;10.10;99.90;;;;;;4912704;28;206898;-68
2022/09/17 02:50:09;;;;;;;21.15;2.95;;;10.20;99.90;;;;;;4889995;29;20076;-67
2022/09/17 02:52:56;;;;;;;25.50;2.55;;;10.20;99.90;;;;;;4862526;29;26175;-65
2022/09/17 02:56:09;;;;;;;19.42;2.78;;;10.10;99.90;;;;;;4868877;29;206825;-66
2022/09/17 02:58:55;;;;;;;21.33;2.38;;;10.00;99.90;;;;;;4837021;29;20053;-67
2022/09/17 03:01:48;;;;;;;21.77;2.65;;;10.00;99.90;;;;;;4798605;29;212907;-67
2022/09/17 03:04:16;;;;;;;24.13;2.65;;;9.90;99.90;;;;;;4853046;29;20057;-66
2022/09/17 03:06:46;;;;;;;17.85;2.28;;;9.80;99.90;;;;;;4817846;29;206910;-67
2022/09/17 03:09:14;;;;;;;20.48;2.17;;;9.70;99.90;;;;;;4852942;29;20049;-66
2022/09/17 03:11:41;;;;;;;21.42;2.50;;;9.60;99.90;;;;;;4816065;29;190233;-67
2022/09/17 03:14:07;;;;;;;16.27;2.50;;;9.60;99.90;;;;;;4854982;29;20065;-67
2022/09/17 03:16:33;;;;;;;21.30;2.47;;;9.60;99.90;;;;;;4808238;29;212927;-67
2022/09/17 03:18:59;;;;;;;23.00;2.95;;;9.60;99.90;;;;;;4854535;29;20069;-68
2022/09/17 03:21:25;;;;;;;20.45;3.00;;;9.60;99.90;;;;;;4813562;29;204739;-68
2022/09/17 03:23:51;;;;;;;18.58;2.25;;;9.60;99.90;;;;;;4836835;29;20053;-68
2022/09/17 03:26:18;;;;;;;18.83;2.30;;;9.60;99.90;;;;;;4861478;29;205955;-68
2022/09/17 03:28:44;;;;;;;15.32;2.47;;;9.70;99.90;;;;;;4908356;29;20055;-68
2022/09/17 03:31:10;;;;;;;23.58;2.80;;;9.80;99.90;;;;;;4870342;29;206689;-67
2022/09/17 03:33:36;;;;;;;17.25;2.20;;;9.80;99.90;;;;;;4935327;28;20064;-67
2022/09/17 03:36:02;;;;;;;17.80;2.22;;;9.80;99.90;;;;;;4946906;28;214159;-66
2022/09/17 03:38:28;;;;;;;17.88;2.75;;;9.80;99.90;;;;;;4992067;28;20062;-67
2022/09/17 03:41:03;;;;;;;17.17;2.58;;;9.80;99.90;;;;;;4943611;28;209974;-69
2022/09/17 03:43:29;;;;;;;23.90;2.53;;;9.80;99.90;;;;;;4983430;28;20435;-67
2022/09/17 03:45:55;;;;;;;16.17;2.25;;;9.80;99.90;;;;;;4937869;28;207556;-67
2022/09/17 03:48:21;;;;;;;18.42;2.50;;;9.70;99.90;;;;;;4981802;28;20043;-67
2022/09/17 03:50:48;;;;;;;18.35;2.55;;;9.70;99.90;;;;;;4954914;28;220461;-68
2022/09/17 03:53:15;;;;;;;16.90;2.35;;;9.70;99.90;;;;;;4998192;28;20050;-67
2022/09/17 03:55:41;;;;;;;16.67;2.13;;;9.80;99.90;;;;;;4932344;28;206282;-68
2022/09/17 03:58:07;;;;;;;17.58;2.55;;;9.80;99.90;;;;;;4990555;28;20419;-68
2022/09/17 04:00:35;;;;;;;16.33;2.67;;;9.80;99.90;;;;;;4950849;28;209696;-68
2022/09/17 04:03:05;;;;;;;17.27;2.67;;;9.70;99.90;;;;;;4989172;28;20054;-68
2022/09/17 04:05:32;;;;;;;16.38;2.22;;;9.70;99.90;;;;;;4952199;28;199208;-68
2022/09/17 04:07:58;;;;;;;17.80;2.30;;;9.60;99.90;;;;;;4999873;28;20042;-68
2022/09/17 04:10:24;;;;;;;20.20;2.53;;;9.60;99.90;;;;;;4938860;28;207193;-67
2022/09/17 04:12:50;;;;;;;19.20;2.53;;;9.60;99.90;;;;;;4974452;28;20054;-68
2022/09/17 04:15:16;;;;;;;19.02;2.40;;;9.60;99.90;;;;;;4948886;28;209824;-68
2022/09/17 04:17:43;;;;;;;20.40;2.33;;;9.60;99.90;;;;;;4992891;28;20061;-66
2022/09/17 04:20:09;;;;;;;16.90;2.08;;;9.50;99.90;;;;;;4937313;28;212828;-67
2022/09/17 04:22:35;;;;;;;19.27;2.35;;;9.50;99.90;;;;;;4986786;28;20054;-67
2022/09/17 04:25:01;;;;;;;15.20;1.95;;;9.50;99.90;;;;;;4951497;28;227310;-67
2022/09/17 04:27:27;;;;;;;18.55;2.30;;;9.50;99.90;;;;;;4996904;28;20051;-67
2022/09/17 04:29:53;;;;;;;15.45;2.15;;;9.50;99.90;;;;;;4982881;28;20054;-67
2022/09/17 04:32:19;;;;;;;16.85;2.25;;;9.60;99.90;;;;;;4952186;28;205304;-67
2022/09/17 04:34:46;;;;;;;18.45;2.13;;;9.60;99.90;;;;;;4983369;28;20423;-68
2022/09/17 04:37:12;;;;;;;12.70;2.13;;;9.60;99.90;;;;;;4939837;28;210153;-67
2022/09/17 04:39:38;;;;;;;18.65;2.10;;;9.70;99.90;;;;;;4984189;28;20051;-67
2022/09/17 04:42:04;;;;;;;13.77;1.85;;;9.70;99.90;;;;;;4956423;28;210762;-66
2022/09/17 04:44:30;;;;;;;19.10;2.80;;;9.70;99.90;;;;;;4982784;28;20054;-66
2022/09/17 04:46:56;;;;;;;18.38;2.20;;;9.70;99.90;;;;;;4955720;28;210811;-66
2022/09/17 04:49:22;;;;;;;14.93;2.35;;;9.60;99.90;;;;;;4989008;28;20042;-66
2022/09/17 04:51:48;;;;;;;19.83;2.25;;;9.60;99.90;;;;;;4935039;28;221974;-65
2022/09/17 04:54:15;;;;;;;16.35;1.88;;;9.60;99.90;;;;;;4983493;28;20419;-67
2022/09/17 04:56:41;;;;;;;14.70;2.17;;;9.50;99.90;;;;;;4939111;28;212882;-67
2022/09/17 04:59:07;;;;;;;17.88;2.33;;;9.60;99.90;;;;;;4985825;28;20046;-67
2022/09/17 05:01:33;;;;;;;13.60;2.08;;;9.50;99.90;;;;;;4940209;28;211519;-65
2022/09/17 05:04:00;;;;;;;13.35;1.98;;;9.50;99.90;;;;;;4989585;28;20054;-66
2022/09/17 05:06:26;;;;;;;15.45;1.92;;;9.60;99.90;;;;;;4930969;28;213484;-66
2022/09/17 05:08:52;;;;;;;10.43;1.60;;;9.60;99.90;;;;;;4978605;28;20053;-67
2022/09/17 05:11:18;;;;;;;15.20;1.90;;;9.50;99.90;;;;;;4929969;28;212663;-67
2022/09/17 05:13:44;;;;;;;14.52;1.98;;;9.50;99.90;;;;;;4976193;28;20054;-65
2022/09/17 05:16:10;;;;;;;17.08;2.40;;;9.50;99.90;;;;;;4935380;28;210744;-67
2022/09/17 05:18:36;;;;;;;17.05;2.38;;;9.50;99.90;;;;;;4987947;28;20061;-67
2022/09/17 05:21:03;;;;;;;20.55;2.22;;;9.50;99.90;;;;;;4947477;28;210831;-66
2022/09/17 05:23:29;;;;;;;18.77;2.22;;;9.50;99.90;;;;;;4988817;28;20407;-66
2022/09/17 05:25:59;;;;;;;19.63;2.17;;;9.50;99.90;;;;;;4933843;28;208757;-67
2022/09/17 05:28:26;;;;;;;19.48;2.15;;;9.50;99.90;;;;;;4970742;28;20061;-66
2022/09/17 05:30:52;;;;;;;24.98;2.60;;;9.50;99.90;;;;;;4934479;28;212785;-67
2022/09/17 05:33:19;;;;;;;19.65;2.70;;;9.60;99.90;;;;;;4980586;28;20081;-68
2022/09/17 05:35:46;;;;;;;16.48;2.10;;;9.70;99.90;;;;;;4936313;28;210156;-68
2022/09/17 05:38:12;;;;;;;15.75;2.10;;;9.80;99.90;;;;;;4983214;28;20050;-67
2022/09/17 05:40:38;;;;;;;18.88;2.47;;;9.80;99.90;;;;;;4942661;28;209209;-66
2022/09/17 05:43:05;;;;;;;20.77;2.42;;;9.90;99.90;;;;;;4968845;28;20058;-67
2022/09/17 05:45:33;;;;;;;19.17;2.67;;;10.00;99.90;;;;;;4937034;28;210343;-67
2022/09/17 05:48:00;;;;;;;17.15;2.55;;;10.10;99.90;;;;;;4985300;28;20050;-67
2022/09/17 05:50:28;;;;;;;16.10;2.17;;;10.10;99.90;;;;;;4937981;28;209435;-67
2022/09/17 05:52:54;;;;;;;14.52;2.25;;;10.20;99.90;;;;;;4974050;28;20050;-68
2022/09/17 05:55:22;;;;;;;19.23;2.20;;;10.20;99.90;;;;;;4937617;28;210946;-67
2022/09/17 05:57:49;;;;;;;15.32;1.80;;;10.20;99.90;;;;;;4966407;28;20054;-68
2022/09/17 06:00:16;;;;;;;17.40;2.20;;;10.10;99.90;;;;;;4935786;28;210502;-69
2022/09/17 06:02:43;;;;;;;16.60;1.90;;;10.10;99.90;;;;;;4984355;28;20057;-68
2022/09/17 06:05:09;;;;;;;17.27;2.03;;;10.10;99.90;;;;;;4947950;28;209416;-68
2022/09/17 06:07:36;;;;;;;16.10;2.20;;;10.10;99.90;;;;;;4998849;28;20053;-67
2022/09/17 06:10:04;;;;;;;14.45;2.08;;;10.00;99.90;;;;;;4944775;28;209547;-67
2022/09/17 06:12:31;;;;;;;15.18;1.77;;;9.90;99.90;;;;;;4997759;28;20078;-68
2022/09/17 06:14:57;;;;;;;15.23;1.83;;;9.90;99.90;;;;;;4974059;28;217274;-68
2022/09/17 06:17:23;;;;;;;16.05;1.90;;;9.80;99.90;;;;;;4975405;28;158083;-67
2022/09/17 06:19:49;;;;;;;15.45;2.30;;;9.80;99.90;;;;;;4990084;28;20077;-68
2022/09/17 06:22:19;;;;;;;16.92;2.28;;;9.70;99.90;;;;;;4945196;28;210324;-67
2022/09/17 06:24:45;;;;;;;15.48;2.45;;;9.70;99.90;;;;;;4988583;28;20399;-67
2022/09/17 06:27:11;;;;;;;19.08;1.98;;;9.70;99.90;;;;;;4958009;28;210363;-67
2022/09/17 06:29:37;;;;;;;19.80;2.60;;;9.80;99.90;;;;;;4989200;28;20050;-68
2022/09/17 06:32:03;;;;;;;18.85;2.22;;;9.80;99.90;;;;;;4949337;28;210166;-68
2022/09/17 06:34:29;;;;;;;17.90;2.17;;;9.90;99.90;;;;;;4989320;28;20512;-67
2022/09/17 06:36:55;;;;;;;12.82;2.10;;;9.80;99.90;;;;;;4942303;28;216233;-67
2022/09/17 06:39:23;;;;;;;15.50;2.08;;;9.80;99.90;;;;;;4986533;28;20051;-67
2022/09/17 06:41:49;;;;;;;16.10;2.28;;;9.90;99.90;;;;;;4941749;28;209711;-67
2022/09/17 06:44:15;;;;;;;13.23;1.80;;;9.90;99.90;;;;;;4983782;28;20054;-67
2022/09/17 06:46:42;;;;;;;16.25;2.22;;;9.90;99.90;;;;;;4945099;28;206260;-67
2022/09/17 06:49:10;;;;;;;14.70;1.98;;;10.20;99.90;;;;;;4986860;28;20058;-68
2022/09/17 06:51:36;;;;;;;10.20;1.75;;;10.70;99.90;;;;;;4949587;28;208985;-67
2022/09/17 06:54:02;;;;;;;15.18;2.05;;;10.80;99.90;;;;;;4979374;28;20050;-68
2022/09/17 06:56:28;;;;;;;17.67;1.92;;;10.70;99.90;;;;;;4947715;28;209152;-68
2022/09/17 06:58:55;;;;;;;14.23;1.88;;;11.10;99.90;;;;;;4983060;28;20054;-68
2022/09/17 07:01:21;;;;;;;15.32;1.92;;;11.30;99.90;;;;;;4942872;28;212521;-66
2022/09/17 07:03:48;;;;;;;15.98;1.73;;;11.20;99.90;;;;;;4992228;28;20093;-66
2022/09/17 07:06:14;;;;;;;14.57;2.10;;;11.10;99.90;;;;;;4940292;28;206001;-66
2022/09/17 07:08:40;;;;;;;14.43;3.20;;;10.90;99.90;;;;;;4990806;28;20057;-66
2022/09/17 07:11:07;;;;;;;14.25;1.60;;;10.80;99.90;;;;;;4943444;28;212760;-66
2022/09/17 07:13:33;;;;;;;11.65;1.40;;;10.70;99.90;;;;;;4987390;28;20042;-66
2022/09/17 07:16:01;;;;;;;12.25;1.40;;;10.70;99.90;;;;;;4936798;28;229568;-67
2022/09/17 07:18:27;;;;;;;9.73;1.48;;;10.80;99.90;;;;;;4989628;28;20054;-67
2022/09/17 07:20:56;;;;;;;15.32;2.08;;;11.00;99.90;;;;;;4932233;28;207088;-66
2022/09/17 07:23:23;;;;;;;10.38;1.38;;;11.20;99.90;;;;;;4980188;28;20050;-67
2022/09/17 07:26:07;;;;;;;14.25;2.10;;;11.20;99.90;;;;;;4954449;28;209788;-68
2022/09/17 07:28:33;;;;;;;15.02;1.65;;;11.10;99.90;;;;;;4983888;28;20061;-68
2022/09/17 07:31:03;;;;;;;13.85;1.60;;;11.00;99.90;;;;;;4930423;28;230785;-66
2022/09/17 07:33:29;;;;;;;13.13;1.85;;;11.20;99.90;;;;;;4979568;28;20054;-66
2022/09/17 07:35:57;;;;;;;12.07;2.17;;;11.70;99.90;;;;;;4931062;28;226338;-67
2022/09/17 07:38:24;;;;;;;12.88;1.58;;;12.40;99.90;;;;;;4987324;28;20047;-66
2022/09/17 07:41:05;;;;;;;10.30;1.42;;;12.90;99.90;;;;;;4939950;28;210699;-67
2022/09/17 07:43:33;;;;;;;13.68;1.50;;;13.40;99.90;;;;;;4981403;28;20066;-67
2022/09/17 07:46:01;;;;;;;13.50;1.67;;;13.70;99.90;;;;;;4938773;28;206758;-66
2022/09/17 07:48:29;;;;;;;12.27;1.95;;;13.70;99.90;;;;;;4981615;28;20054;-67
2022/09/17 07:50:55;;;;;;;13.15;1.67;;;13.30;99.90;;;;;;4932114;28;209808;-68
2022/09/17 07:53:21;;;;;;;16.63;1.92;;;13.40;99.90;;;;;;4974967;28;20057;-68
2022/09/17 07:55:52;;;;;;;14.00;1.75;;;13.10;99.90;;;;;;4933812;28;209600;-69
2022/09/17 07:58:18;;;;;;;14.80;1.70;;;12.70;99.90;;;;;;4984299;28;20043;-68
2022/09/17 08:00:45;;;;;;;11.65;1.85;;;12.30;99.90;;;;;;4938429;28;213970;-67
2022/09/17 08:03:11;;;;;;;15.05;2.15;;;12.80;99.90;;;;;;4973787;28;20065;-67
2022/09/17 08:05:37;;;;;;;12.07;1.40;;;13.30;99.90;;;;;;4937108;28;209189;-68
2022/09/17 08:08:03;;;;;;;9.70;1.40;;;13.50;99.90;;;;;;4980749;28;20061;-68
2022/09/17 08:10:29;;;;;;;8.50;1.33;;;13.70;99.90;;;;;;4948818;28;211050;-68
2022/09/17 08:12:57;;;;;;;10.27;1.40;;;14.10;99.90;;;;;;4992660;28;20705;-67
2022/09/17 08:15:24;;;;;;;9.70;1.23;;;14.30;99.90;;;;;;4933098;28;211458;-67
2022/09/17 08:17:51;;;;;;;9.20;1.10;;;13.70;99.90;;;;;;5000139;28;20042;-67
2022/09/17 08:20:18;;;;;;;9.95;1.30;;;13.30;99.90;;;;;;4933564;28;208862;-66
2022/09/17 08:22:44;;;;;;;8.05;1.20;;;13.00;99.90;;;;;;4985455;28;20042;-66
2022/09/17 08:25:10;;;;;;;11.20;1.40;;;12.60;99.90;;;;;;4940034;28;226420;-67
2022/09/17 08:27:40;;;;;;;11.02;1.40;;;12.40;99.90;;;;;;4991377;28;20054;-66
2022/09/17 08:30:06;;;;;;;7.13;1.10;;;12.00;99.90;;;;;;4934142;28;248519;-66
2022/09/17 08:32:33;;;;;;;9.48;1.20;;;11.80;99.90;;;;;;4972132;28;20054;-67
2022/09/17 08:34:59;;;;;;;11.23;1.48;;;11.70;99.90;;;;;;4978653;28;20050;-67
2022/09/17 08:37:28;;;;;;;10.10;1.15;;;11.70;99.90;;;;;;4975805;28;20070;-67
2022/09/17 08:39:54;;;;;;;13.43;1.30;;;11.60;99.90;;;;;;4967102;28;211031;-67
2022/09/17 08:42:31;;;;;;;11.27;1.38;;;11.70;99.90;;;;;;4936986;28;207367;-67
2022/09/17 08:44:58;;;;;;;11.45;1.45;;;12.60;99.90;;;;;;4955518;28;215940;-67
2022/09/17 08:47:29;;;;;;;10.65;1.38;;;13.40;99.90;;;;;;4959550;28;206780;-67
2022/09/17 08:50:02;;;;;;;12.60;1.50;;;13.50;99.90;;;;;;4966830;28;210824;-68
2022/09/17 08:52:55;;;;;;;12.35;1.50;;;13.80;99.90;;;;;;4952778;28;182718;-68
2022/09/17 08:55:39;;;;;;;11.63;1.50;;;14.00;99.90;;;;;;4945060;28;210351;-65
2022/09/17 08:58:39;;;;;;;8.95;1.38;;;14.50;99.90;;;;;;4989117;28;20050;-67
2022/09/17 09:01:31;;;;;;;10.25;1.50;;;14.90;99.90;;;;;;4938211;28;209054;-67
2022/09/17 09:04:09;;;;;;;10.57;1.52;;;14.80;99.90;;;;;;4985578;28;20050;-67
2022/09/17 09:06:57;;;;;;;12.85;1.48;;;15.40;99.90;;;;;;4931782;28;208014;-66
2022/09/17 09:09:27;;;;;;;10.40;1.48;;;15.50;99.90;;;;;;4979682;28;20463;-67
2022/09/17 09:12:02;;;;;;;18.05;1.60;;;14.90;99.90;;;;;;4937032;28;208466;-67
2022/09/17 09:14:37;;;;;;;10.85;1.50;;;14.20;99.90;;;;;;4988669;28;20043;-67
2022/09/17 09:17:07;;;;;;;10.32;1.50;;;13.60;99.90;;;;;;4951849;28;209009;-67
2022/09/17 09:19:44;;;;;;;11.30;1.47;;;13.40;99.90;;;;;;4987495;28;20066;-67
2022/09/17 09:22:42;;;;;;;10.95;1.52;;;13.70;99.90;;;;;;4933277;28;203442;-68
2022/09/17 09:25:25;;;;;;;10.90;1.88;;;14.30;99.90;;;;;;4940674;28;212350;-67
2022/09/17 09:28:30;;;;;;;13.38;1.60;;;14.90;99.90;;;;;;4969650;28;20061;-68
2022/09/17 09:31:22;;;;;;;12.98;1.92;;;15.40;99.90;;;;;;4932104;28;210512;-67
2022/09/17 09:33:50;;;;;;;12.13;1.63;;;15.30;99.90;;;;;;4940255;28;20066;-67
2022/09/17 09:36:20;;;;;;;15.35;1.80;;;15.30;99.90;;;;;;4893175;28;207296;-66
2022/09/17 09:38:52;;;;;;;11.10;1.52;;;15.70;99.90;;;;;;4923833;29;20058;-67
2022/09/17 09:41:39;;;;;;;9.30;1.35;;;16.00;99.90;;;;;;4890510;28;205586;-66
2022/09/17 09:44:10;;;;;;;11.32;1.48;;;16.40;99.90;;;;;;4941499;28;20055;-65
2022/09/17 09:47:07;;;;;;;10.43;1.48;;;16.50;99.90;;;;;;4900422;28;207264;-66
2022/09/17 09:49:58;;;;;;;8.68;1.27;;;16.30;99.90;;;;;;4943683;28;20051;-66
2022/09/17 09:53:01;;;;;;;10.43;1.38;;;15.70;99.90;;;;;;4879257;29;206889;-67
2022/09/17 09:55:59;;;;;;;8.85;1.13;;;15.20;99.90;;;;;;4900205;28;113647;-67
2022/09/17 09:58:40;;;;;;;9.27;1.30;;;14.10;99.90;;;;;;4915453;28;20537;-65
2022/09/17 10:01:10;;;;;;;13.75;1.30;;;14.10;99.90;;;;;;4891630;28;207734;-67
2022/09/17 10:03:40;;;;;;;10.52;1.38;;;14.90;99.90;;;;;;4933571;28;20048;-65
2022/09/17 10:06:10;;;;;;;12.10;1.50;;;15.90;99.90;;;;;;4893546;28;210998;-65
2022/09/17 10:08:39;;;;;;;11.93;1.33;;;16.70;99.90;;;;;;4932682;28;20062;-65
2022/09/17 10:11:11;;;;;;;7.47;1.10;;;16.90;99.90;;;;;;4930823;28;214703;-67
2022/09/17 10:13:37;;;;;;;8.63;1.30;;;17.10;99.90;;;;;;4982756;28;20057;-67
2022/09/17 10:16:21;;;;;;;9.18;1.38;;;16.60;99.90;;;;;;4944200;28;210011;-67
2022/09/17 10:18:50;;;;;;;9.88;1.33;;;16.20;99.90;;;;;;4981364;28;20091;-68
2022/09/17 10:21:33;;;;;;;9.23;1.30;;;15.60;99.90;;;;;;4947558;28;209577;-67
2022/09/17 10:24:01;;;;;;;11.02;1.40;;;15.00;99.90;;;;;;4977295;28;20508;-67
2022/09/17 10:26:31;;;;;;;7.80;1.20;;;14.50;99.90;;;;;;4929090;28;214025;-66
2022/09/17 10:28:59;;;;;;;10.27;1.70;;;14.30;99.90;;;;;;4984860;28;20046;-67
2022/09/17 10:31:25;;;;;;;10.52;1.50;;;14.80;99.90;;;;;;4924374;28;208881;-66
2022/09/17 10:34:00;;;;;;;8.50;1.38;;;15.20;99.90;;;;;;4979880;28;20055;-66
2022/09/17 10:36:45;;;;;;;12.70;1.58;;;15.80;99.90;;;;;;4944892;28;210643;-67
2022/09/17 10:39:37;;;;;;;9.98;1.42;;;16.20;99.90;;;;;;4980540;28;20058;-65
2022/09/17 10:42:03;;;;;;;10.57;1.30;;;16.50;99.90;;;;;;4944700;28;213554;-66
2022/09/17 10:44:33;;;;;;;9.70;1.42;;;17.00;99.90;;;;;;4980007;28;20078;-66
2022/09/17 10:47:03;;;;;;;12.67;2.07;;;17.10;99.90;;;;;;4952439;28;210925;-66
2022/09/17 10:49:42;;;;;;;11.68;2.10;;;17.60;99.90;;;;;;4985163;28;20054;-67
2022/09/17 10:52:23;;;;;;;11.57;1.58;;;17.30;99.90;;;;;;4942470;28;216308;-66
2022/09/17 10:54:57;;;;;;;11.80;1.40;;;17.40;99.90;;;;;;4983237;28;20077;-66
2022/09/17 10:57:29;;;;;;;11.93;1.80;;;17.80;99.90;;;;;;4921061;28;207759;-67
2022/09/17 11:00:06;;;;;;;15.15;1.92;;;18.00;98.30;;;;;;4974048;28;232822;-65
2022/09/17 11:03:09;;;;;;;16.13;2.10;;;18.00;97.70;;;;;;4953334;28;206574;-68
2022/09/17 11:05:58;;;;;;;17.75;2.20;;;16.70;99.90;;;;;;4940948;28;150144;-69
2022/09/17 11:08:44;;;;;;;10.45;1.45;;;15.70;99.90;;;;;;4983679;28;20038;-67
2022/09/17 11:11:21;;;;;;;10.88;1.40;;;14.90;99.90;;;;;;4953851;28;205445;-69
2022/09/17 11:13:55;;;;;;;11.45;1.77;;;14.40;99.90;;;;;;4983298;28;20057;-66
2022/09/17 11:16:44;;;;;;;10.45;1.50;;;13.90;99.90;;;;;;4935663;28;213869;-68
2022/09/17 11:19:29;;;;;;;9.45;1.20;;;14.20;99.90;;;;;;4986383;28;20058;-68
2022/09/17 11:22:29;;;;;;;10.82;1.60;;;14.00;99.90;;;;;;4948331;28;209792;-67
2022/09/17 11:25:14;;;;;;;12.47;2.07;;;13.90;99.90;;;;;;4970319;28;211185;-68
2022/09/17 11:27:51;;;;;;;12.68;2.05;;;13.60;99.90;;;;;;4945326;28;200094;-66
2022/09/17 11:30:23;;;;;;;14.60;2.30;;;13.40;99.90;;;;;;4939152;28;210393;-67
2022/09/17 11:33:04;;;;;;;;;;;13.50;99.90;;;;;;4973888;28;20061;-68
2022/09/17 11:35:35;;;;;;;15.00;1.80;;;13.80;99.90;;;;;;4939239;28;207335;-66
2022/09/17 11:38:25;;;;;;;13.02;1.80;;;14.40;99.90;;;;;;4988618;28;20046;-67
2022/09/17 11:41:03;;;;;;;11.30;1.75;;;15.00;99.90;;;;;;4932756;28;208845;-67
2022/09/17 11:43:33;;;;;;;12.80;1.65;;;15.50;99.90;;;;;;4983561;28;20055;-67
2022/09/17 11:46:07;;;;;;;13.65;1.80;;;15.10;99.90;;;;;;4934835;28;210597;-67
2022/09/17 11:48:41;;;;;;;12.93;1.73;;;14.60;99.90;;;;;;4976034;28;20062;-68
2022/09/17 11:51:22;;;;;;;11.73;1.88;;;14.10;99.90;;;;;;4941340;28;209320;-68
2022/09/17 11:53:59;;;;;;;15.82;2.30;;;13.60;99.90;;;;;;4989366;28;20046;-66
2022/09/17 11:56:41;;;;;;;14.93;2.05;;;13.60;99.90;;;;;;4940912;28;210569;-65
2022/09/17 11:59:18;;;;;;;12.68;1.92;;;14.70;99.90;;;;;;4984477;28;20050;-66
2022/09/17 12:01:58;;;;;;;13.90;1.98;;;14.70;99.90;;;;;;4944308;28;213541;-66
2022/09/17 12:04:43;;;;;;;10.90;1.55;;;14.80;99.90;;;;;;4976496;28;20527;-66
2022/09/17 12:07:34;;;;;;;10.70;1.50;;;14.30;99.90;;;;;;4935267;28;210386;-67
2022/09/17 12:10:19;;;;;;;;;;;14.30;99.90;;;;;;4937056;28;210266;-66
2022/09/17 12:13:22;;;;;;;8.93;1.50;;;14.10;99.90;;;;;;4987363;28;19921;-66
2022/09/17 12:15:54;;;;;;;11.18;1.52;;;14.10;99.90;;;;;;4945103;28;216201;-68
2022/09/17 12:18:30;;;;;;;11.82;1.70;;;14.50;99.90;;;;;;4987443;28;20415;-68
2022/09/17 12:20:58;;;;;;;13.43;2.00;;;15.40;99.90;;;;;;4945775;28;214392;-67
2022/09/17 12:23:39;;;;;;;13.95;1.77;;;15.90;99.90;;;;;;4981869;28;20085;-67
2022/09/17 12:26:37;;;;;;;14.88;2.38;;;16.70;99.90;;;;;;4935935;28;210092;-66
2022/09/17 12:29:12;;;;;;;10.68;1.55;;;17.20;99.90;;;;;;4982692;28;20538;-66
2022/09/17 12:31:45;;;;;;;11.23;1.75;;;17.60;99.90;;;;;;4940896;28;209627;-67
2022/09/17 12:34:52;;;;;;;13.57;2.10;;;18.10;99.90;;;;;;4985543;28;20058;-67
2022/09/17 12:37:43;;;;;;;16.05;2.47;;;18.70;99.90;;;;;;4929370;28;206623;-67
2022/09/17 12:40:28;;;;;;;14.98;2.00;;;18.50;99.90;;;;;;4933954;28;216200;-67
2022/09/17 12:43:19;;;;;;;20.65;2.47;;;17.50;99.90;;;;;;4994586;28;20054;-67
2022/09/17 12:45:50;;;;;;;15.90;2.22;;;16.30;99.30;;;;;;4945109;28;219184;-68
2022/09/17 12:48:34;;;;;;;16.48;2.47;;;15.60;99.60;;;;;;4985919;28;20046;-66
2022/09/17 12:51:04;;;;;;;15.30;2.50;;;15.80;99.90;;;;;;4944074;28;209447;-66
2022/09/17 12:54:10;;;;;;;13.98;2.28;;;16.50;99.60;;;;;;4987719;28;20059;-67
2022/09/17 12:57:10;;;;;;;13.95;1.85;;;17.20;99.00;;;;;;4938503;28;209030;-66
2022/09/17 12:59:51;;;;;;;11.75;1.80;;;17.80;98.30;;;;;;4986640;28;20054;-65
2022/09/17 13:02:36;;;;;;;15.07;2.17;;;17.80;97.00;;;;;;4950092;28;208045;-66
2022/09/17 13:05:15;;;;;;;11.90;1.95;;;18.60;97.20;;;;;;4932398;28;213001;-65
2022/09/17 13:08:03;;;;;;;14.55;2.30;;;18.90;96.70;;;;;;4969346;28;20419;-67
2022/09/17 13:10:48;;;;;;;12.15;2.10;;;18.40;95.00;;;;;;4939806;28;138777;-67